sensor_id;sensor_type;location;lat;lon;timestamp;noise_LAeq;noise_LA_min;noise_LA_max;noise_LA01;noise_LA95
69616;Laerm;56822;52.516;4.708;2023-07-24T00:00:06;35.81;32.98;40.09;;
69616;Laerm;56822;52.516;4.708;2023-07-24T00:00:16;37.04;34.65;45.66;;
69616;Laerm;56822;52.516;4.708;2023-07-24T00:00:26;35.74;32.80;41.95;;
69616;Laerm;56822;52.516;4.708;2023-07-24T00:00:37;34.22;32.43;36.94;;
69616;Laerm;56822;52.516;4.708;2023-07-24T00:00:49;34.90;32.90;37.43;;
69616;Laerm;56822;52.516;4.708;2023-07-24T00:01:00;33.67;31.87;36.33;;
69616;Laerm;56822;52.516;4.708;2023-07-24T00:01:10;32.43;30.73;34.62;;
69616;Laerm;56822;52.516;4.708;2023-07-24T00:01:21;33.91;31.71;37.30;;
69616;Laerm;56822;52.516;4.708;2023-07-24T00:01:31;32.06;30.53;33.75;;
69616;Laerm;56822;52.516;4.708;2023-07-24T00:01:41;32.62;30.84;35.37;;
69616;Laerm;56822;52.516;4.708;2023-07-24T00:01:52;36.32;32.96;42.98;;
69616;Laerm;56822;52.516;4.708;2023-07-24T00:02:03;37.48;34.64;39.60;;
69616;Laerm;56822;52.516;4.708;2023-07-24T00:02:14;38.19;36.37;40.73;;
69616;Laerm;56822;52.516;4.708;2023-07-24T00:02:25;35.81;33.18;39.11;;
69616;Laerm;56822;52.516;4.708;2023-07-24T00:02:35;36.14;33.62;48.17;;
69616;Laerm;56822;52.516;4.708;2023-07-24T00:02:45;36.16;33.24;42.31;;
69616;Laerm;56822;52.516;4.708;2023-07-24T00:02:56;34.99;33.26;39.18;;
69616;Laerm;56822;52.516;4.708;2023-07-24T00:03:07;35.86;33.25;37.84;;
69616;Laerm;56822;52.516;4.708;2023-07-24T00:03:18;36.61;34.03;40.63;;
69616;Laerm;56822;52.516;4.708;2023-07-24T00:03:28;39.98;35.24;52.79;;
69616;Laerm;56822;52.516;4.708;2023-07-24T00:03:39;42.45;36.90;46.86;;
69616;Laerm;56822;52.516;4.708;2023-07-24T00:03:49;44.23;37.75;57.13;;
69616;Laerm;56822;52.516;4.708;2023-07-24T00:03:59;40.54;37.87;43.91;;
69616;Laerm;56822;52.516;4.708;2023-07-24T00:04:09;42.98;38.94;48.53;;
69616;Laerm;56822;52.516;4.708;2023-07-24T00:04:20;41.67;37.71;46.70;;
69616;Laerm;56822;52.516;4.708;2023-07-24T00:04:31;45.52;41.06;54.23;;
69616;Laerm;56822;52.516;4.708;2023-07-24T00:04:42;43.82;39.48;57.25;;
69616;Laerm;56822;52.516;4.708;2023-07-24T00:04:55;41.41;37.70;45.66;;
69616;Laerm;56822;52.516;4.708;2023-07-24T00:05:06;43.06;39.44;46.52;;
69616;Laerm;56822;52.516;4.708;2023-07-24T00:05:17;42.25;38.95;50.68;;
69616;Laerm;56822;52.516;4.708;2023-07-24T00:05:27;39.28;36.06;44.23;;
69616;Laerm;56822;52.516;4.708;2023-07-24T00:05:38;39.71;36.32;47.11;;
69616;Laerm;56822;52.516;4.708;2023-07-24T00:05:48;40.37;36.71;48.87;;
69616;Laerm;56822;52.516;4.708;2023-07-24T00:05:59;48.12;41.94;54.56;;
69616;Laerm;56822;52.516;4.708;2023-07-24T00:06:10;48.82;43.63;53.82;;
69616;Laerm;56822;52.516;4.708;2023-07-24T00:06:20;49.84;45.84;54.45;;
69616;Laerm;56822;52.516;4.708;2023-07-24T00:06:31;46.37;38.51;53.35;;
69616;Laerm;56822;52.516;4.708;2023-07-24T00:06:41;41.58;34.14;47.69;;
69616;Laerm;56822;52.516;4.708;2023-07-24T00:06:51;37.17;34.38;43.03;;
69616;Laerm;56822;52.516;4.708;2023-07-24T00:07:05;38.03;35.50;42.97;;
69616;Laerm;56822;52.516;4.708;2023-07-24T00:07:16;40.72;35.95;49.68;;
69616;Laerm;56822;52.516;4.708;2023-07-24T00:07:26;37.64;34.55;45.05;;
69616;Laerm;56822;52.516;4.708;2023-07-24T00:07:37;39.17;35.91;46.72;;
69616;Laerm;56822;52.516;4.708;2023-07-24T00:07:48;38.15;35.00;41.45;;
69616;Laerm;56822;52.516;4.708;2023-07-24T00:07:58;38.05;33.44;42.34;;
69616;Laerm;56822;52.516;4.708;2023-07-24T00:08:09;39.56;35.77;46.42;;
69616;Laerm;56822;52.516;4.708;2023-07-24T00:08:20;47.43;38.51;56.31;;
69616;Laerm;56822;52.516;4.708;2023-07-24T00:08:30;49.47;43.53;57.59;;
69616;Laerm;56822;52.516;4.708;2023-07-24T00:08:44;47.62;42.39;53.72;;
69616;Laerm;56822;52.516;4.708;2023-07-24T00:08:55;43.75;38.47;48.95;;
69616;Laerm;56822;52.516;4.708;2023-07-24T00:09:05;37.59;35.60;39.97;;
69616;Laerm;56822;52.516;4.708;2023-07-24T00:09:15;37.01;33.69;40.53;;
69616;Laerm;56822;52.516;4.708;2023-07-24T00:09:26;35.19;32.45;44.52;;
69616;Laerm;56822;52.516;4.708;2023-07-24T00:09:36;36.95;33.63;44.86;;
69616;Laerm;56822;52.516;4.708;2023-07-24T00:09:46;39.92;37.87;42.20;;
69616;Laerm;56822;52.516;4.708;2023-07-24T00:09:56;43.75;38.71;48.68;;
69616;Laerm;56822;52.516;4.708;2023-07-24T00:10:07;43.05;38.42;61.88;;
69616;Laerm;56822;52.516;4.708;2023-07-24T00:10:17;38.95;35.95;45.41;;
69616;Laerm;56822;52.516;4.708;2023-07-24T00:10:27;42.55;36.32;56.88;;
69616;Laerm;56822;52.516;4.708;2023-07-24T00:10:38;40.55;37.55;43.76;;
69616;Laerm;56822;52.516;4.708;2023-07-24T00:10:48;40.60;37.81;44.09;;
69616;Laerm;56822;52.516;4.708;2023-07-24T00:10:59;39.84;36.93;45.14;;
69616;Laerm;56822;52.516;4.708;2023-07-24T00:11:09;40.95;36.44;45.05;;
69616;Laerm;56822;52.516;4.708;2023-07-24T00:11:19;45.15;41.49;49.41;;
69616;Laerm;56822;52.516;4.708;2023-07-24T00:11:30;42.45;38.53;49.39;;
69616;Laerm;56822;52.516;4.708;2023-07-24T00:11:40;46.54;39.54;55.69;;
69616;Laerm;56822;52.516;4.708;2023-07-24T00:11:50;50.19;44.16;55.49;;
69616;Laerm;56822;52.516;4.708;2023-07-24T00:12:00;52.53;44.82;58.56;;
69616;Laerm;56822;52.516;4.708;2023-07-24T00:12:11;49.10;43.10;53.93;;
69616;Laerm;56822;52.516;4.708;2023-07-24T00:12:21;47.71;39.33;53.91;;
69616;Laerm;56822;52.516;4.708;2023-07-24T00:12:32;41.74;38.23;47.97;;
69616;Laerm;56822;52.516;4.708;2023-07-24T00:12:42;38.06;36.33;41.76;;
69616;Laerm;56822;52.516;4.708;2023-07-24T00:12:53;37.66;33.45;45.91;;
69616;Laerm;56822;52.516;4.708;2023-07-24T00:13:03;34.71;32.45;40.72;;
69616;Laerm;56822;52.516;4.708;2023-07-24T00:13:13;34.96;32.82;39.58;;
69616;Laerm;56822;52.516;4.708;2023-07-24T00:13:24;35.24;33.05;38.68;;
69616;Laerm;56822;52.516;4.708;2023-07-24T00:13:34;37.98;34.90;45.42;;
69616;Laerm;56822;52.516;4.708;2023-07-24T00:13:44;37.82;36.19;42.14;;
69616;Laerm;56822;52.516;4.708;2023-07-24T00:13:55;38.21;35.46;42.03;;
69616;Laerm;56822;52.516;4.708;2023-07-24T00:14:05;38.44;34.63;42.63;;
69616;Laerm;56822;52.516;4.708;2023-07-24T00:14:15;39.36;34.93;46.34;;
69616;Laerm;56822;52.516;4.708;2023-07-24T00:14:26;42.72;37.01;49.20;;
69616;Laerm;56822;52.516;4.708;2023-07-24T00:14:36;40.04;36.05;44.59;;
69616;Laerm;56822;52.516;4.708;2023-07-24T00:14:46;41.79;36.26;51.91;;
69616;Laerm;56822;52.516;4.708;2023-07-24T00:14:57;48.56;41.02;55.75;;
69616;Laerm;56822;52.516;4.708;2023-07-24T00:15:07;51.65;45.35;59.55;;
69616;Laerm;56822;52.516;4.708;2023-07-24T00:15:17;51.07;45.28;59.40;;
69616;Laerm;56822;52.516;4.708;2023-07-24T00:15:28;45.86;37.30;53.10;;
69616;Laerm;56822;52.516;4.708;2023-07-24T00:15:38;38.50;34.99;45.56;;
69616;Laerm;56822;52.516;4.708;2023-07-24T00:15:48;36.35;32.28;41.23;;
69616;Laerm;56822;52.516;4.708;2023-07-24T00:15:59;33.74;32.02;38.45;;
69616;Laerm;56822;52.516;4.708;2023-07-24T00:16:09;34.53;32.52;38.39;;
69616;Laerm;56822;52.516;4.708;2023-07-24T00:16:20;37.80;34.22;41.60;;
69616;Laerm;56822;52.516;4.708;2023-07-24T00:16:30;36.90;33.66;41.54;;
69616;Laerm;56822;52.516;4.708;2023-07-24T00:16:40;35.64;33.90;37.53;;
69616;Laerm;56822;52.516;4.708;2023-07-24T00:16:51;35.88;33.38;38.10;;
69616;Laerm;56822;52.516;4.708;2023-07-24T00:17:01;33.72;31.81;36.27;;
69616;Laerm;56822;52.516;4.708;2023-07-24T00:17:11;34.18;32.10;36.63;;
69616;Laerm;56822;52.516;4.708;2023-07-24T00:17:22;33.78;31.66;38.62;;
69616;Laerm;56822;52.516;4.708;2023-07-24T00:17:32;35.80;33.48;39.71;;
69616;Laerm;56822;52.516;4.708;2023-07-24T00:17:42;38.37;34.66;47.65;;
69616;Laerm;56822;52.516;4.708;2023-07-24T00:17:52;34.25;31.56;41.56;;
69616;Laerm;56822;52.516;4.708;2023-07-24T00:18:03;32.94;31.22;35.19;;
69616;Laerm;56822;52.516;4.708;2023-07-24T00:18:13;34.85;32.98;37.75;;
69616;Laerm;56822;52.516;4.708;2023-07-24T00:18:23;37.25;34.78;39.84;;
69616;Laerm;56822;52.516;4.708;2023-07-24T00:18:34;38.85;35.42;50.97;;
69616;Laerm;56822;52.516;4.708;2023-07-24T00:18:44;39.27;35.34;42.70;;
69616;Laerm;56822;52.516;4.708;2023-07-24T00:18:54;37.30;35.31;39.63;;
69616;Laerm;56822;52.516;4.708;2023-07-24T00:19:04;35.42;33.68;38.32;;
69616;Laerm;56822;52.516;4.708;2023-07-24T00:19:15;35.42;33.39;39.28;;
69616;Laerm;56822;52.516;4.708;2023-07-24T00:19:25;37.70;33.27;45.82;;
69616;Laerm;56822;52.516;4.708;2023-07-24T00:19:35;42.15;38.69;46.84;;
69616;Laerm;56822;52.516;4.708;2023-07-24T00:19:45;36.83;32.97;39.84;;
69616;Laerm;56822;52.516;4.708;2023-07-24T00:19:56;35.36;32.35;37.80;;
69616;Laerm;56822;52.516;4.708;2023-07-24T00:20:06;36.05;32.02;40.34;;
69616;Laerm;56822;52.516;4.708;2023-07-24T00:20:16;34.56;32.86;36.23;;
69616;Laerm;56822;52.516;4.708;2023-07-24T00:20:27;34.16;31.67;36.76;;
69616;Laerm;56822;52.516;4.708;2023-07-24T00:20:37;33.80;31.69;36.52;;
69616;Laerm;56822;52.516;4.708;2023-07-24T00:20:47;34.14;32.50;36.88;;
69616;Laerm;56822;52.516;4.708;2023-07-24T00:20:58;34.33;31.78;36.16;;
69616;Laerm;56822;52.516;4.708;2023-07-24T00:21:08;33.45;31.50;36.09;;
69616;Laerm;56822;52.516;4.708;2023-07-24T00:21:20;37.47;34.23;46.94;;
69616;Laerm;56822;52.516;4.708;2023-07-24T00:21:31;35.65;33.68;38.17;;
69616;Laerm;56822;52.516;4.708;2023-07-24T00:21:41;33.47;30.71;37.43;;
69616;Laerm;56822;52.516;4.708;2023-07-24T00:21:51;32.87;30.92;35.16;;
69616;Laerm;56822;52.516;4.708;2023-07-24T00:22:02;34.61;32.63;37.25;;
69616;Laerm;56822;52.516;4.708;2023-07-24T00:22:12;37.42;33.29;46.82;;
69616;Laerm;56822;52.516;4.708;2023-07-24T00:22:22;39.83;36.47;48.62;;
69616;Laerm;56822;52.516;4.708;2023-07-24T00:22:32;38.11;36.29;40.38;;
69616;Laerm;56822;52.516;4.708;2023-07-24T00:22:43;38.04;35.49;46.08;;
69616;Laerm;56822;52.516;4.708;2023-07-24T00:22:53;36.80;34.08;42.42;;
69616;Laerm;56822;52.516;4.708;2023-07-24T00:23:03;36.59;34.00;39.76;;
69616;Laerm;56822;52.516;4.708;2023-07-24T00:23:14;37.49;35.32;43.51;;
69616;Laerm;56822;52.516;4.708;2023-07-24T00:23:24;37.26;34.35;41.79;;
69616;Laerm;56822;52.516;4.708;2023-07-24T00:23:34;34.62;33.10;37.15;;
69616;Laerm;56822;52.516;4.708;2023-07-24T00:23:45;36.27;33.25;42.04;;
69616;Laerm;56822;52.516;4.708;2023-07-24T00:23:55;45.87;41.38;55.38;;
69616;Laerm;56822;52.516;4.708;2023-07-24T00:24:05;41.67;38.63;47.53;;
69616;Laerm;56822;52.516;4.708;2023-07-24T00:24:15;39.47;36.36;42.45;;
69616;Laerm;56822;52.516;4.708;2023-07-24T00:24:26;37.24;35.27;39.77;;
69616;Laerm;56822;52.516;4.708;2023-07-24T00:24:37;36.93;34.83;39.96;;
69616;Laerm;56822;52.516;4.708;2023-07-24T00:24:47;38.24;35.06;40.97;;
69616;Laerm;56822;52.516;4.708;2023-07-24T00:24:57;38.12;35.09;40.80;;
69616;Laerm;56822;52.516;4.708;2023-07-24T00:25:08;36.45;34.49;39.78;;
69616;Laerm;56822;52.516;4.708;2023-07-24T00:25:19;34.94;32.88;38.11;;
69616;Laerm;56822;52.516;4.708;2023-07-24T00:25:29;42.38;34.35;53.45;;
69616;Laerm;56822;52.516;4.708;2023-07-24T00:25:40;38.92;36.05;48.67;;
69616;Laerm;56822;52.516;4.708;2023-07-24T00:25:50;39.57;36.24;42.77;;
69616;Laerm;56822;52.516;4.708;2023-07-24T00:26:00;39.34;35.20;46.87;;
69616;Laerm;56822;52.516;4.708;2023-07-24T00:26:10;38.21;35.75;40.91;;
69616;Laerm;56822;52.516;4.708;2023-07-24T00:26:21;41.57;38.37;47.24;;
69616;Laerm;56822;52.516;4.708;2023-07-24T00:26:31;39.31;37.07;43.91;;
69616;Laerm;56822;52.516;4.708;2023-07-24T00:26:41;40.22;35.01;47.21;;
69616;Laerm;56822;52.516;4.708;2023-07-24T00:26:52;40.84;34.19;50.53;;
69616;Laerm;56822;52.516;4.708;2023-07-24T00:27:02;35.13;32.58;37.90;;
69616;Laerm;56822;52.516;4.708;2023-07-24T00:27:13;37.95;33.67;43.03;;
69616;Laerm;56822;52.516;4.708;2023-07-24T00:27:24;33.63;31.78;40.84;;
69616;Laerm;56822;52.516;4.708;2023-07-24T00:27:34;35.35;32.20;45.96;;
69616;Laerm;56822;52.516;4.708;2023-07-24T00:27:44;35.47;33.34;41.93;;
69616;Laerm;56822;52.516;4.708;2023-07-24T00:27:54;36.70;34.28;43.08;;
69616;Laerm;56822;52.516;4.708;2023-07-24T00:28:05;34.35;32.17;38.02;;
69616;Laerm;56822;52.516;4.708;2023-07-24T00:28:15;35.08;33.11;40.56;;
69616;Laerm;56822;52.516;4.708;2023-07-24T00:28:25;34.62;32.43;40.97;;
69616;Laerm;56822;52.516;4.708;2023-07-24T00:28:36;33.54;31.95;38.06;;
69616;Laerm;56822;52.516;4.708;2023-07-24T00:28:46;32.32;30.51;35.35;;
69616;Laerm;56822;52.516;4.708;2023-07-24T00:28:56;32.96;30.72;34.69;;
69616;Laerm;56822;52.516;4.708;2023-07-24T00:29:06;35.89;33.22;38.96;;
69616;Laerm;56822;52.516;4.708;2023-07-24T00:29:17;35.45;32.12;41.01;;
69616;Laerm;56822;52.516;4.708;2023-07-24T00:29:27;36.14;33.01;43.97;;
69616;Laerm;56822;52.516;4.708;2023-07-24T00:29:37;36.50;34.12;41.21;;
69616;Laerm;56822;52.516;4.708;2023-07-24T00:29:48;36.00;33.46;38.54;;
69616;Laerm;56822;52.516;4.708;2023-07-24T00:29:58;34.89;32.74;36.78;;
69616;Laerm;56822;52.516;4.708;2023-07-24T00:30:08;33.06;31.77;34.69;;
69616;Laerm;56822;52.516;4.708;2023-07-24T00:30:19;35.18;32.22;42.53;;
69616;Laerm;56822;52.516;4.708;2023-07-24T00:30:29;36.17;34.15;39.98;;
69616;Laerm;56822;52.516;4.708;2023-07-24T00:30:39;35.17;32.71;38.23;;
69616;Laerm;56822;52.516;4.708;2023-07-24T00:30:50;39.06;34.38;51.56;;
69616;Laerm;56822;52.516;4.708;2023-07-24T00:31:00;36.66;32.99;47.64;;
69616;Laerm;56822;52.516;4.708;2023-07-24T00:31:10;35.04;32.99;37.57;;
69616;Laerm;56822;52.516;4.708;2023-07-24T00:31:21;33.55;31.03;36.59;;
69616;Laerm;56822;52.516;4.708;2023-07-24T00:31:31;33.14;30.88;34.92;;
69616;Laerm;56822;52.516;4.708;2023-07-24T00:31:41;34.68;31.73;44.96;;
69616;Laerm;56822;52.516;4.708;2023-07-24T00:31:51;34.66;32.28;36.78;;
69616;Laerm;56822;52.516;4.708;2023-07-24T00:32:02;32.69;30.43;35.71;;
69616;Laerm;56822;52.516;4.708;2023-07-24T00:32:12;32.24;30.71;35.48;;
69616;Laerm;56822;52.516;4.708;2023-07-24T00:32:22;34.39;31.66;42.07;;
69616;Laerm;56822;52.516;4.708;2023-07-24T00:32:33;33.27;31.46;35.93;;
69616;Laerm;56822;52.516;4.708;2023-07-24T00:32:43;41.66;32.57;53.43;;
69616;Laerm;56822;52.516;4.708;2023-07-24T00:32:53;41.33;36.35;51.13;;
69616;Laerm;56822;52.516;4.708;2023-07-24T00:33:04;37.58;33.55;43.89;;
69616;Laerm;56822;52.516;4.708;2023-07-24T00:33:14;35.63;33.46;42.62;;
69616;Laerm;56822;52.516;4.708;2023-07-24T00:33:24;35.34;32.27;37.29;;
69616;Laerm;56822;52.516;4.708;2023-07-24T00:33:35;33.90;31.87;41.26;;
69616;Laerm;56822;52.516;4.708;2023-07-24T00:33:45;36.09;31.45;39.88;;
69616;Laerm;56822;52.516;4.708;2023-07-24T00:33:55;36.29;32.68;39.63;;
69616;Laerm;56822;52.516;4.708;2023-07-24T00:34:05;34.49;32.12;45.34;;
69616;Laerm;56822;52.516;4.708;2023-07-24T00:34:16;39.09;35.82;45.87;;
69616;Laerm;56822;52.516;4.708;2023-07-24T00:34:26;35.33;32.70;44.67;;
69616;Laerm;56822;52.516;4.708;2023-07-24T00:34:36;33.53;31.09;36.96;;
69616;Laerm;56822;52.516;4.708;2023-07-24T00:34:47;34.45;30.84;41.38;;
69616;Laerm;56822;52.516;4.708;2023-07-24T00:34:58;38.39;33.62;49.25;;
69616;Laerm;56822;52.516;4.708;2023-07-24T00:35:08;33.79;31.51;35.60;;
69616;Laerm;56822;52.516;4.708;2023-07-24T00:35:18;36.35;31.68;41.12;;
69616;Laerm;56822;52.516;4.708;2023-07-24T00:35:29;37.74;34.03;41.50;;
69616;Laerm;56822;52.516;4.708;2023-07-24T00:35:39;33.60;31.61;35.88;;
69616;Laerm;56822;52.516;4.708;2023-07-24T00:35:49;33.61;31.29;36.60;;
69616;Laerm;56822;52.516;4.708;2023-07-24T00:35:59;33.78;31.41;36.92;;
69616;Laerm;56822;52.516;4.708;2023-07-24T00:36:10;34.74;32.19;36.96;;
69616;Laerm;56822;52.516;4.708;2023-07-24T00:36:20;32.86;31.02;34.48;;
69616;Laerm;56822;52.516;4.708;2023-07-24T00:36:31;34.19;30.54;40.24;;
69616;Laerm;56822;52.516;4.708;2023-07-24T00:36:41;33.82;31.55;42.13;;
69616;Laerm;56822;52.516;4.708;2023-07-24T00:36:51;34.05;31.56;38.03;;
69616;Laerm;56822;52.516;4.708;2023-07-24T00:37:01;36.19;33.03;42.31;;
69616;Laerm;56822;52.516;4.708;2023-07-24T00:37:12;35.86;33.02;42.01;;
69616;Laerm;56822;52.516;4.708;2023-07-24T00:37:22;34.32;32.03;36.91;;
69616;Laerm;56822;52.516;4.708;2023-07-24T00:37:32;38.69;34.53;43.44;;
69616;Laerm;56822;52.516;4.708;2023-07-24T00:37:43;38.43;35.15;45.26;;
69616;Laerm;56822;52.516;4.708;2023-07-24T00:37:53;35.59;33.55;37.27;;
69616;Laerm;56822;52.516;4.708;2023-07-24T00:38:03;36.42;34.58;40.64;;
69616;Laerm;56822;52.516;4.708;2023-07-24T00:38:14;37.38;35.13;40.83;;
69616;Laerm;56822;52.516;4.708;2023-07-24T00:38:24;40.79;37.79;46.29;;
69616;Laerm;56822;52.516;4.708;2023-07-24T00:38:34;40.54;36.82;49.67;;
69616;Laerm;56822;52.516;4.708;2023-07-24T00:38:45;38.49;36.35;41.12;;
69616;Laerm;56822;52.516;4.708;2023-07-24T00:38:55;37.03;33.67;42.03;;
69616;Laerm;56822;52.516;4.708;2023-07-24T00:39:05;35.65;32.28;39.86;;
69616;Laerm;56822;52.516;4.708;2023-07-24T00:39:15;35.19;32.77;37.86;;
69616;Laerm;56822;52.516;4.708;2023-07-24T00:39:26;35.89;33.56;40.27;;
69616;Laerm;56822;52.516;4.708;2023-07-24T00:39:38;36.66;34.51;39.63;;
69616;Laerm;56822;52.516;4.708;2023-07-24T00:39:48;38.02;35.78;41.59;;
69616;Laerm;56822;52.516;4.708;2023-07-24T00:39:59;36.93;34.42;40.51;;
69616;Laerm;56822;52.516;4.708;2023-07-24T00:40:09;38.54;34.74;42.15;;
69616;Laerm;56822;52.516;4.708;2023-07-24T00:40:19;38.29;34.94;42.25;;
69616;Laerm;56822;52.516;4.708;2023-07-24T00:40:30;36.84;34.06;49.72;;
69616;Laerm;56822;52.516;4.708;2023-07-24T00:40:40;35.57;33.51;41.85;;
69616;Laerm;56822;52.516;4.708;2023-07-24T00:40:50;34.11;32.48;36.30;;
69616;Laerm;56822;52.516;4.708;2023-07-24T00:41:01;34.56;31.96;39.10;;
69616;Laerm;56822;52.516;4.708;2023-07-24T00:41:11;35.55;32.38;39.60;;
69616;Laerm;56822;52.516;4.708;2023-07-24T00:41:21;35.70;32.97;38.85;;
69616;Laerm;56822;52.516;4.708;2023-07-24T00:41:32;36.23;34.17;38.93;;
69616;Laerm;56822;52.516;4.708;2023-07-24T00:41:43;37.16;33.34;44.60;;
69616;Laerm;56822;52.516;4.708;2023-07-24T00:41:53;33.45;31.48;35.56;;
69616;Laerm;56822;52.516;4.708;2023-07-24T00:42:04;32.38;30.18;34.14;;
69616;Laerm;56822;52.516;4.708;2023-07-24T00:42:14;32.16;30.81;38.07;;
69616;Laerm;56822;52.516;4.708;2023-07-24T00:42:24;31.77;30.46;33.63;;
69616;Laerm;56822;52.516;4.708;2023-07-24T00:42:35;31.82;30.29;33.07;;
69616;Laerm;56822;52.516;4.708;2023-07-24T00:42:48;32.56;30.84;33.78;;
69616;Laerm;56822;52.516;4.708;2023-07-24T00:42:58;32.90;30.44;40.34;;
69616;Laerm;56822;52.516;4.708;2023-07-24T00:43:09;32.94;31.04;37.10;;
69616;Laerm;56822;52.516;4.708;2023-07-24T00:43:19;32.68;30.76;34.34;;
69616;Laerm;56822;52.516;4.708;2023-07-24T00:43:29;33.67;31.26;36.93;;
69616;Laerm;56822;52.516;4.708;2023-07-24T00:43:40;36.23;34.37;38.25;;
69616;Laerm;56822;52.516;4.708;2023-07-24T00:43:51;37.69;33.12;41.75;;
69616;Laerm;56822;52.516;4.708;2023-07-24T00:44:01;33.50;31.73;35.37;;
69616;Laerm;56822;52.516;4.708;2023-07-24T00:44:11;33.14;31.14;36.02;;
69616;Laerm;56822;52.516;4.708;2023-07-24T00:44:22;35.29;31.29;40.56;;
69616;Laerm;56822;52.516;4.708;2023-07-24T00:44:32;39.27;35.97;49.88;;
69616;Laerm;56822;52.516;4.708;2023-07-24T00:44:43;36.71;33.95;42.29;;
69616;Laerm;56822;52.516;4.708;2023-07-24T00:44:53;34.97;33.22;36.76;;
69616;Laerm;56822;52.516;4.708;2023-07-24T00:45:03;38.18;34.24;47.44;;
69616;Laerm;56822;52.516;4.708;2023-07-24T00:45:14;36.94;33.11;41.56;;
69616;Laerm;56822;52.516;4.708;2023-07-24T00:45:24;35.54;33.64;37.79;;
69616;Laerm;56822;52.516;4.708;2023-07-24T00:45:35;35.89;32.98;46.01;;
69616;Laerm;56822;52.516;4.708;2023-07-24T00:45:45;39.24;33.39;45.47;;
69616;Laerm;56822;52.516;4.708;2023-07-24T00:45:56;39.13;32.36;46.56;;
69616;Laerm;56822;52.516;4.708;2023-07-24T00:46:07;33.21;31.77;35.13;;
69616;Laerm;56822;52.516;4.708;2023-07-24T00:46:17;33.01;31.46;36.19;;
69616;Laerm;56822;52.516;4.708;2023-07-24T00:46:28;33.67;31.58;36.95;;
69616;Laerm;56822;52.516;4.708;2023-07-24T00:46:42;33.23;31.13;36.07;;
69616;Laerm;56822;52.516;4.708;2023-07-24T00:46:52;34.68;32.99;36.72;;
69616;Laerm;56822;52.516;4.708;2023-07-24T00:47:04;34.06;31.90;39.37;;
69616;Laerm;56822;52.516;4.708;2023-07-24T00:47:14;33.38;31.39;35.64;;
69616;Laerm;56822;52.516;4.708;2023-07-24T00:47:25;34.29;32.17;38.04;;
69616;Laerm;56822;52.516;4.708;2023-07-24T00:47:36;33.42;31.50;35.63;;
69616;Laerm;56822;52.516;4.708;2023-07-24T00:47:46;33.60;32.04;34.91;;
69616;Laerm;56822;52.516;4.708;2023-07-24T00:47:57;37.25;33.07;43.67;;
69616;Laerm;56822;52.516;4.708;2023-07-24T00:48:08;34.97;32.59;37.01;;
69616;Laerm;56822;52.516;4.708;2023-07-24T00:48:18;34.54;32.55;38.34;;
69616;Laerm;56822;52.516;4.708;2023-07-24T00:48:29;34.11;32.10;37.00;;
69616;Laerm;56822;52.516;4.708;2023-07-24T00:48:39;36.15;33.84;37.96;;
69616;Laerm;56822;52.516;4.708;2023-07-24T00:48:50;34.48;32.73;36.27;;
69616;Laerm;56822;52.516;4.708;2023-07-24T00:49:02;32.75;31.15;34.18;;
69616;Laerm;56822;52.516;4.708;2023-07-24T00:49:12;31.56;30.09;33.32;;
69616;Laerm;56822;52.516;4.708;2023-07-24T00:49:23;34.57;31.66;45.96;;
69616;Laerm;56822;52.516;4.708;2023-07-24T00:49:33;35.17;32.94;40.07;;
69616;Laerm;56822;52.516;4.708;2023-07-24T00:49:44;35.01;33.36;37.64;;
69616;Laerm;56822;52.516;4.708;2023-07-24T00:49:54;35.10;33.43;36.74;;
69616;Laerm;56822;52.516;4.708;2023-07-24T00:50:05;35.74;33.57;37.48;;
69616;Laerm;56822;52.516;4.708;2023-07-24T00:50:16;36.76;34.31;49.04;;
69616;Laerm;56822;52.516;4.708;2023-07-24T00:50:26;36.73;34.79;41.26;;
69616;Laerm;56822;52.516;4.708;2023-07-24T00:50:37;37.19;35.11;40.53;;
69616;Laerm;56822;52.516;4.708;2023-07-24T00:50:47;35.71;33.83;38.06;;
69616;Laerm;56822;52.516;4.708;2023-07-24T00:50:58;37.11;34.15;42.36;;
69616;Laerm;56822;52.516;4.708;2023-07-24T00:51:09;36.83;33.98;43.42;;
69616;Laerm;56822;52.516;4.708;2023-07-24T00:51:19;35.60;33.35;43.66;;
69616;Laerm;56822;52.516;4.708;2023-07-24T00:51:30;34.59;32.53;38.68;;
69616;Laerm;56822;52.516;4.708;2023-07-24T00:51:40;35.53;32.99;45.06;;
69616;Laerm;56822;52.516;4.708;2023-07-24T00:51:51;34.46;32.37;36.43;;
69616;Laerm;56822;52.516;4.708;2023-07-24T00:52:02;39.11;33.97;55.25;;
69616;Laerm;56822;52.516;4.708;2023-07-24T00:52:12;36.98;34.05;40.60;;
69616;Laerm;56822;52.516;4.708;2023-07-24T00:52:23;35.00;33.16;37.36;;
69616;Laerm;56822;52.516;4.708;2023-07-24T00:52:34;33.60;31.38;39.22;;
69616;Laerm;56822;52.516;4.708;2023-07-24T00:52:45;34.82;32.06;36.69;;
69616;Laerm;56822;52.516;4.708;2023-07-24T00:52:55;36.00;33.46;38.87;;
69616;Laerm;56822;52.516;4.708;2023-07-24T00:53:06;36.13;32.58;41.61;;
69616;Laerm;56822;52.516;4.708;2023-07-24T00:53:16;35.50;32.86;41.55;;
69616;Laerm;56822;52.516;4.708;2023-07-24T00:53:27;34.40;31.86;37.58;;
69616;Laerm;56822;52.516;4.708;2023-07-24T00:53:37;33.99;31.74;37.50;;
69616;Laerm;56822;52.516;4.708;2023-07-24T00:53:48;32.79;31.08;34.61;;
69616;Laerm;56822;52.516;4.708;2023-07-24T00:54:00;33.96;31.45;36.75;;
69616;Laerm;56822;52.516;4.708;2023-07-24T00:54:10;36.35;33.57;38.95;;
69616;Laerm;56822;52.516;4.708;2023-07-24T00:54:21;35.63;33.56;39.56;;
69616;Laerm;56822;52.516;4.708;2023-07-24T00:54:32;34.44;32.42;36.55;;
69616;Laerm;56822;52.516;4.708;2023-07-24T00:54:42;43.00;33.88;57.54;;
69616;Laerm;56822;52.516;4.708;2023-07-24T00:54:53;38.69;35.14;44.81;;
69616;Laerm;56822;52.516;4.708;2023-07-24T00:55:04;36.24;32.92;41.63;;
69616;Laerm;56822;52.516;4.708;2023-07-24T00:55:15;33.05;31.56;38.63;;
69616;Laerm;56822;52.516;4.708;2023-07-24T00:55:26;35.84;32.58;44.89;;
69616;Laerm;56822;52.516;4.708;2023-07-24T00:55:37;34.34;32.44;37.56;;
69616;Laerm;56822;52.516;4.708;2023-07-24T00:55:47;33.44;30.51;39.04;;
69616;Laerm;56822;52.516;4.708;2023-07-24T00:55:58;32.26;30.19;35.00;;
69616;Laerm;56822;52.516;4.708;2023-07-24T00:56:08;32.48;30.22;35.45;;
69616;Laerm;56822;52.516;4.708;2023-07-24T00:56:19;33.51;31.19;36.15;;
69616;Laerm;56822;52.516;4.708;2023-07-24T00:56:30;34.33;31.41;37.98;;
69616;Laerm;56822;52.516;4.708;2023-07-24T00:56:40;33.16;31.51;35.10;;
69616;Laerm;56822;52.516;4.708;2023-07-24T00:56:51;34.06;31.56;39.45;;
69616;Laerm;56822;52.516;4.708;2023-07-24T00:57:01;35.71;32.27;47.04;;
69616;Laerm;56822;52.516;4.708;2023-07-24T00:57:13;35.35;32.45;37.76;;
69616;Laerm;56822;52.516;4.708;2023-07-24T00:57:23;34.73;31.55;37.41;;
69616;Laerm;56822;52.516;4.708;2023-07-24T00:57:34;35.26;32.57;39.26;;
69616;Laerm;56822;52.516;4.708;2023-07-24T00:57:44;33.30;31.57;37.46;;
69616;Laerm;56822;52.516;4.708;2023-07-24T00:57:56;34.22;31.67;37.09;;
69616;Laerm;56822;52.516;4.708;2023-07-24T00:58:07;35.20;31.54;44.60;;
69616;Laerm;56822;52.516;4.708;2023-07-24T00:58:20;34.87;30.72;40.59;;
69616;Laerm;56822;52.516;4.708;2023-07-24T00:58:31;37.93;32.77;50.96;;
69616;Laerm;56822;52.516;4.708;2023-07-24T00:58:43;34.65;31.72;41.60;;
69616;Laerm;56822;52.516;4.708;2023-07-24T00:58:54;35.18;32.64;43.67;;